createdAt,value
2022-11-22T00:00:56.705Z,32.90
2022-11-22T00:03:24.653Z,33.90
2022-11-22T00:05:52.444Z,33.50
2022-11-22T00:08:20.315Z,34.80
2022-11-22T00:10:51.503Z,30.90
2022-11-22T00:13:20.005Z,32.70
2022-11-22T00:15:58.910Z,36.10
2022-11-22T00:18:27.781Z,36.30
2022-11-22T00:20:56.232Z,38.10
2022-11-22T00:23:24.173Z,37.50
2022-11-22T00:25:51.987Z,37.80
2022-11-22T00:28:19.756Z,37.10
2022-11-22T00:30:47.502Z,38.50
2022-11-22T00:33:15.269Z,38.00
2022-11-22T00:35:45.370Z,37.40
2022-11-22T00:38:13.120Z,36.10
2022-11-22T00:40:40.947Z,31.90
2022-11-22T00:43:08.824Z,36.40
2022-11-22T00:45:36.638Z,35.30
2022-11-22T00:48:04.804Z,33.60
2022-11-22T00:50:32.571Z,33.60
2022-11-22T00:53:00.252Z,36.20
2022-11-22T00:55:28.106Z,33.10
2022-11-22T00:57:56.149Z,36.30
2022-11-22T01:00:24.147Z,37.60
2022-11-22T01:02:52.004Z,35.10
2022-11-22T01:05:20.671Z,35.20
2022-11-22T01:07:48.762Z,36.70
2022-11-22T01:10:16.917Z,37.80
2022-11-22T01:12:45.262Z,35.10
2022-11-22T01:15:13.082Z,37.30
2022-11-22T01:17:41.041Z,35.30
2022-11-22T01:20:09.638Z,35.90
2022-11-22T01:22:37.447Z,38.10
2022-11-22T01:25:05.807Z,39.40
2022-11-22T01:27:33.943Z,39.60
2022-11-22T01:30:01.823Z,37.40
2022-11-22T01:32:29.722Z,37.10
2022-11-22T01:35:00.141Z,38.30
2022-11-22T01:37:28.074Z,38.80
2022-11-22T01:39:55.999Z,39.70
2022-11-22T01:42:23.801Z,36.90
2022-11-22T01:44:53.813Z,36.90
2022-11-22T01:47:25.266Z,39.70
2022-11-22T01:50:00.162Z,40.90
2022-11-22T01:52:32.308Z,40.40
2022-11-22T01:55:09.422Z,37.20
2022-11-22T01:57:39.383Z,33.20
2022-11-22T02:00:10.889Z,33.80
2022-11-22T02:02:51.568Z,34.20
2022-11-22T02:05:22.845Z,32.40
2022-11-22T02:07:59.059Z,35.40
2022-11-22T02:10:29.961Z,32.70
2022-11-22T02:12:59.863Z,32.50
2022-11-22T02:15:27.749Z,32.70
2022-11-22T02:17:58.443Z,32.80
2022-11-22T02:20:26.610Z,28.20
2022-11-22T02:23:14.429Z,32.50
2022-11-22T02:25:42.279Z,30.00
2022-11-22T02:28:13.518Z,27.80
2022-11-22T02:30:41.663Z,29.80
2022-11-22T02:33:09.629Z,30.60
2022-11-22T02:35:37.720Z,30.90
2022-11-22T02:38:13.011Z,30.80
2022-11-22T02:40:46.739Z,28.70
2022-11-22T02:43:18.786Z,29.90
2022-11-22T02:45:46.838Z,30.60
2022-11-22T02:48:17.222Z,30.20
2022-11-22T02:50:45.937Z,31.60
2022-11-22T02:53:14.230Z,30.90
2022-11-22T02:55:42.100Z,30.60
2022-11-22T02:58:10.008Z,31.40
2022-11-22T03:00:39.363Z,30.30
2022-11-22T03:03:07.486Z,33.60
2022-11-22T03:05:35.273Z,32.00
2022-11-22T03:08:03.193Z,29.40
2022-11-22T03:10:31.683Z,31.10
2022-11-22T03:12:59.733Z,32.80
2022-11-22T03:15:27.592Z,32.60
2022-11-22T03:18:00.147Z,31.70
2022-11-22T03:20:28.844Z,30.50
2022-11-22T03:22:57.041Z,31.00
2022-11-22T03:25:26.123Z,31.20
2022-11-22T03:27:54.447Z,34.10
2022-11-22T03:30:22.298Z,34.20
2022-11-22T03:32:50.185Z,32.60
2022-11-22T03:35:18.081Z,31.50
2022-11-22T03:37:45.887Z,32.30
2022-11-22T03:40:13.886Z,32.50
2022-11-22T03:42:42.087Z,36.30
2022-11-22T03:45:10.597Z,35.20
2022-11-22T03:47:38.441Z,35.30
2022-11-22T03:50:06.639Z,35.40
2022-11-22T03:52:34.819Z,36.00
2022-11-22T03:55:02.967Z,36.00
2022-11-22T03:57:31.229Z,36.10
2022-11-22T03:59:59.384Z,32.20
2022-11-22T04:02:27.498Z,34.40
2022-11-22T04:04:55.308Z,34.70
2022-11-22T04:07:23.516Z,36.30
2022-11-22T04:09:51.548Z,36.10
2022-11-22T04:12:19.267Z,36.30
2022-11-22T04:15:19.846Z,36.30
2022-11-22T04:17:48.527Z,36.20
2022-11-22T04:20:41.746Z,38.80
2022-11-22T04:23:14.078Z,33.00
2022-11-22T04:25:44.769Z,33.30
2022-11-22T04:28:14.419Z,35.70
2022-11-22T04:31:01.603Z,35.80
2022-11-22T04:33:30.405Z,37.00
2022-11-22T04:35:58.298Z,36.10
2022-11-22T04:38:26.258Z,31.30
2022-11-22T04:40:54.427Z,33.50
2022-11-22T04:43:42.504Z,33.10
2022-11-22T04:46:11.010Z,32.80
2022-11-22T04:48:39.200Z,32.80
2022-11-22T04:51:26.740Z,31.90
2022-11-22T04:53:54.577Z,32.50
2022-11-22T04:56:23.272Z,32.50
2022-11-22T04:58:55.951Z,32.30
2022-11-22T05:01:24.476Z,31.50
2022-11-22T05:03:52.521Z,30.20
2022-11-22T05:06:21.076Z,32.80
2022-11-22T05:08:50.158Z,32.20
2022-11-22T05:11:18.512Z,33.60
2022-11-22T05:13:46.431Z,35.70
2022-11-22T05:16:15.645Z,30.40
2022-11-22T05:18:43.890Z,30.30
2022-11-22T05:21:14.048Z,30.00
2022-11-22T05:23:57.176Z,31.80
2022-11-22T05:26:35.863Z,28.20
2022-11-22T05:29:08.046Z,31.00
2022-11-22T05:31:38.329Z,33.00
2022-11-22T05:34:07.082Z,34.10
2022-11-22T05:36:35.551Z,35.80
2022-11-22T05:39:07.443Z,36.10
2022-11-22T05:41:36.674Z,36.20
2022-11-22T05:44:05.565Z,38.50
2022-11-22T05:46:34.358Z,41.90
2022-11-22T05:49:02.760Z,35.90
2022-11-22T05:51:34.731Z,35.80
2022-11-22T05:54:04.108Z,34.60
2022-11-22T05:56:32.588Z,36.80
2022-11-22T05:59:00.956Z,36.90
2022-11-22T06:01:29.039Z,35.90
2022-11-22T06:03:58.017Z,38.70
2022-11-22T06:06:28.604Z,37.90
2022-11-22T06:08:59.189Z,39.30
2022-11-22T06:11:28.046Z,37.70
2022-11-22T06:13:59.665Z,41.00
2022-11-22T06:16:27.767Z,41.20
2022-11-22T06:18:56.790Z,38.10
2022-11-22T06:21:26.063Z,39.70
2022-11-22T06:23:55.135Z,40.10
2022-11-22T06:26:24.537Z,41.90
2022-11-22T06:28:54.514Z,42.80
2022-11-22T06:31:28.146Z,41.50
2022-11-22T06:33:59.708Z,38.70
2022-11-22T06:36:30.348Z,39.10
2022-11-22T06:38:58.818Z,43.00
2022-11-22T06:41:31.766Z,41.00
2022-11-22T06:43:59.788Z,39.00
2022-11-22T06:46:28.013Z,41.00
2022-11-22T06:48:56.213Z,35.90
2022-11-22T06:51:26.442Z,36.80
2022-11-22T06:53:58.219Z,40.30
2022-11-22T06:56:31.956Z,38.70
2022-11-22T06:59:04.038Z,38.20
2022-11-22T07:01:33.467Z,38.90
2022-11-22T07:04:02.158Z,40.20
2022-11-22T07:06:33.093Z,38.20
2022-11-22T07:09:02.540Z,35.60
2022-11-22T07:11:31.891Z,33.30
2022-11-22T07:14:06.866Z,31.50
2022-11-22T07:16:37.901Z,31.50
2022-11-22T07:19:06.737Z,31.50
2022-11-22T07:21:37.236Z,31.10
2022-11-22T07:24:07.159Z,32.10
2022-11-22T07:26:35.360Z,31.10
2022-11-22T07:29:04.240Z,30.90
2022-11-22T07:31:32.243Z,29.40
2022-11-22T07:34:00.262Z,30.90
2022-11-22T07:36:30.401Z,29.50
2022-11-22T07:38:58.590Z,29.40
2022-11-22T07:41:26.508Z,26.40
2022-11-22T07:43:54.720Z,29.20
2022-11-22T07:46:29.406Z,29.80
2022-11-22T07:48:58.402Z,31.30
2022-11-22T07:51:26.411Z,31.20
2022-11-22T07:53:56.007Z,31.90
2022-11-22T07:56:24.275Z,29.90
2022-11-22T07:58:52.349Z,29.20
2022-11-22T08:01:21.018Z,25.40
2022-11-22T08:03:49.359Z,32.50
2022-11-22T08:06:17.663Z,30.10
2022-11-22T08:08:47.648Z,30.50
2022-11-22T08:11:15.717Z,33.30
2022-11-22T08:13:44.742Z,33.90
2022-11-22T08:16:14.822Z,34.90
2022-11-22T08:18:47.735Z,33.10
2022-11-22T08:21:17.440Z,32.20
2022-11-22T08:23:46.477Z,34.40
2022-11-22T08:26:16.792Z,36.90
2022-11-22T08:28:45.630Z,35.50
2022-11-22T08:31:16.411Z,35.80
2022-11-22T08:33:44.437Z,36.10
2022-11-22T08:36:12.563Z,39.60
2022-11-22T08:38:41.821Z,39.60
2022-11-22T08:41:11.080Z,35.60
2022-11-22T08:43:39.355Z,36.30
2022-11-22T08:46:07.667Z,38.70
2022-11-22T08:48:37.192Z,40.60
2022-11-22T08:51:08.191Z,37.20
2022-11-22T08:53:38.957Z,35.90
2022-11-22T08:56:09.863Z,39.90
2022-11-22T08:58:38.526Z,40.90
2022-11-22T09:01:16.973Z,43.00
2022-11-22T09:03:45.451Z,41.60
2022-11-22T09:09:30.476Z,42.40
2022-11-22T09:11:55.233Z,43.30
2022-11-22T09:14:23.748Z,42.00
2022-11-22T09:16:52.534Z,42.10
2022-11-22T09:19:21.260Z,41.80
2022-11-22T09:21:50.358Z,42.30
2022-11-22T09:24:18.779Z,38.30
2022-11-22T09:26:46.720Z,34.90
2022-11-22T09:29:15.924Z,44.50
2022-11-22T09:31:44.497Z,42.20
2022-11-22T09:34:12.936Z,46.30
2022-11-22T09:36:41.228Z,43.20
2022-11-22T09:39:09.738Z,42.80
2022-11-22T09:41:43.968Z,41.40
2022-11-22T09:44:27.177Z,37.50
2022-11-22T09:46:58.924Z,41.60
2022-11-22T09:49:43.571Z,41.10
2022-11-22T09:52:28.691Z,42.40
2022-11-22T09:55:04.151Z,37.30
2022-11-22T09:57:40.698Z,38.70
2022-11-22T10:00:25.259Z,43.50
2022-11-22T10:03:27.081Z,41.40
2022-11-22T10:06:03.172Z,42.00
2022-11-22T10:08:41.730Z,36.70
2022-11-22T10:11:33.505Z,37.90
2022-11-22T10:14:44.986Z,38.10
2022-11-22T10:17:41.994Z,38.60
2022-11-22T10:20:23.422Z,34.30
2022-11-22T10:22:52.463Z,36.90
2022-11-22T10:25:40.224Z,34.80
2022-11-22T10:28:17.884Z,34.90
2022-11-22T10:30:57.773Z,32.70
2022-11-22T10:33:41.309Z,30.70
2022-11-22T10:36:32.409Z,32.60
2022-11-22T10:39:19.753Z,34.10
2022-11-22T10:42:25.885Z,34.40
2022-11-22T10:45:11.697Z,32.00
2022-11-22T10:48:04.630Z,37.60
2022-11-22T10:50:53.457Z,37.70
2022-11-22T10:53:43.140Z,36.90
2022-11-22T10:56:37.299Z,33.40
2022-11-22T10:59:32.997Z,37.10
2022-11-22T11:02:51.221Z,36.80
2022-11-22T11:05:37.323Z,36.90
2022-11-22T11:08:37.110Z,33.60
2022-11-22T11:11:00.133Z,37.10
2022-11-22T11:13:34.146Z,39.30
2022-11-22T11:16:08.016Z,38.10
2022-11-22T11:18:46.386Z,36.20
2022-11-22T11:21:15.099Z,37.50
2022-11-22T11:23:43.412Z,39.90
2022-11-22T11:26:26.238Z,41.40
2022-11-22T11:29:16.781Z,38.30
2022-11-22T11:32:10.350Z,39.50
2022-11-22T11:34:41.899Z,40.20
2022-11-22T11:37:21.206Z,41.00
2022-11-22T11:39:49.204Z,41.10
2022-11-22T11:42:29.180Z,36.60
2022-11-22T11:45:19.115Z,40.90
2022-11-22T11:47:47.340Z,40.90
2022-11-22T11:50:30.230Z,39.00
2022-11-22T11:53:07.412Z,37.20
2022-11-22T11:55:36.965Z,37.40
2022-11-22T11:58:20.862Z,40.20
2022-11-22T12:00:48.784Z,38.30
2022-11-22T12:03:19.785Z,38.70
2022-11-22T12:05:48.115Z,37.20
2022-11-22T12:08:30.064Z,36.40
2022-11-22T12:11:05.621Z,38.60
2022-11-22T12:14:04.532Z,36.80
2022-11-22T12:16:31.973Z,35.90
2022-11-22T12:19:06.657Z,35.60
2022-11-22T12:21:43.489Z,38.70
2022-11-22T12:24:45.243Z,38.90
2022-11-22T12:27:10.509Z,36.60
2022-11-22T12:29:40.911Z,37.40
2022-11-22T12:32:19.116Z,34.80
2022-11-22T12:34:57.146Z,38.50
2022-11-22T12:37:34.724Z,36.90
2022-11-22T12:40:12.953Z,37.90
2022-11-22T12:42:49.901Z,38.00
2022-11-22T12:45:32.898Z,38.90
2022-11-22T12:48:06.584Z,38.60
2022-11-22T12:50:43.365Z,37.70
2022-11-22T12:53:36.760Z,36.40
2022-11-22T12:56:18.047Z,40.00
2022-11-22T12:58:46.659Z,44.40
2022-11-22T13:01:27.107Z,39.30
2022-11-22T13:04:22.125Z,41.20
2022-11-22T13:07:12.187Z,40.50
2022-11-22T13:09:47.155Z,41.80
2022-11-22T13:12:21.516Z,47.10
2022-11-22T13:14:56.409Z,41.20
2022-11-22T13:17:27.331Z,41.50
2022-11-22T13:19:59.630Z,43.10
2022-11-22T13:23:05.281Z,44.00
2022-11-22T13:25:50.507Z,41.00
2022-11-22T13:28:23.105Z,41.40
2022-11-22T13:31:11.332Z,43.00
2022-11-22T13:33:43.699Z,42.20
2022-11-22T13:36:37.214Z,47.30
2022-11-22T13:39:19.642Z,42.60
2022-11-22T13:42:00.140Z,44.20
2022-11-22T13:44:36.405Z,46.20
2022-11-22T13:47:25.662Z,48.40
2022-11-22T13:49:54.329Z,44.90
2022-11-22T13:52:22.650Z,43.00
2022-11-22T13:54:52.763Z,44.70
2022-11-22T13:57:40.814Z,50.00
2022-11-22T14:00:12.295Z,50.00
2022-11-22T14:02:42.285Z,43.90
2022-11-22T14:05:19.046Z,47.30
2022-11-22T14:07:52.627Z,44.30
2022-11-22T14:10:42.503Z,52.10
2022-11-22T14:13:39.125Z,48.80
2022-11-22T14:16:26.246Z,47.40
2022-11-22T14:19:19.409Z,46.10
2022-11-22T14:21:58.202Z,46.10
2022-11-22T14:24:45.459Z,53.30
2022-11-22T14:27:30.425Z,45.20
2022-11-22T14:30:21.050Z,42.80
2022-11-22T14:32:54.659Z,55.90
2022-11-22T14:35:37.969Z,53.20
2022-11-22T14:38:09.322Z,50.40
2022-11-22T14:40:41.585Z,51.30
2022-11-22T14:43:30.026Z,53.90
2022-11-22T14:46:37.334Z,48.40
2022-11-22T14:49:32.022Z,51.40
2022-11-22T14:52:00.539Z,53.20
2022-11-22T14:54:43.458Z,51.60
2022-11-22T14:57:17.779Z,58.30
2022-11-22T15:00:18.265Z,48.40
2022-11-22T15:03:04.611Z,49.60
2022-11-22T15:09:20.353Z,49.70
2022-11-22T15:09:52.962Z,53.00
2022-11-22T15:12:48.614Z,56.10
2022-11-22T15:57:37.801Z,52.90
2022-11-22T16:00:18.971Z,55.00
2022-11-22T16:02:53.863Z,51.90
2022-11-22T16:06:06.251Z,52.00
2022-11-22T16:08:36.033Z,47.50
2022-11-22T16:11:04.411Z,55.90
2022-11-22T16:13:36.092Z,45.90
2022-11-22T16:16:11.018Z,57.60
2022-11-22T16:18:41.344Z,51.90
2022-11-22T16:21:12.764Z,49.40
2022-11-22T16:23:42.809Z,49.60
2022-11-22T16:26:19.013Z,53.80
2022-11-22T16:28:49.355Z,38.90
2022-11-22T16:31:30.205Z,43.50
2022-11-22T16:33:59.001Z,50.60
2022-11-22T16:36:29.804Z,52.10
2022-11-22T16:38:58.752Z,48.70
2022-11-22T16:41:29.385Z,42.60
2022-11-22T16:44:02.942Z,47.20
2022-11-22T16:46:31.071Z,47.70
2022-11-22T16:48:59.918Z,48.50
2022-11-22T16:51:29.403Z,54.80
2022-11-22T16:54:00.047Z,53.80
2022-11-22T16:56:30.192Z,53.30
2022-11-22T16:58:58.817Z,50.60
2022-11-22T17:01:32.734Z,58.80
2022-11-22T17:04:03.418Z,62.30
2022-11-22T17:06:32.919Z,59.00
2022-11-22T17:09:02.784Z,56.70
2022-11-22T17:11:32.923Z,55.10
2022-11-22T17:14:01.705Z,61.50
2022-11-22T17:16:32.821Z,65.40
2022-11-22T17:19:01.274Z,65.20
2022-11-22T17:21:38.083Z,51.30
2022-11-22T17:24:20.804Z,55.40
2022-11-22T17:26:49.171Z,45.40
2022-11-22T17:32:06.074Z,55.10
2022-11-22T17:34:35.853Z,52.30
2022-11-22T17:37:04.177Z,57.70
2022-11-22T17:39:32.582Z,63.60
2022-11-22T17:42:00.668Z,41.30
2022-11-22T17:44:28.778Z,58.00
2022-11-22T17:46:56.789Z,62.40
2022-11-22T17:49:25.227Z,59.70
2022-11-22T17:51:53.248Z,63.80
2022-11-22T17:54:21.360Z,55.70
2022-11-22T17:56:50.071Z,62.70
2022-11-22T17:59:18.496Z,52.70
2022-11-22T18:01:47.403Z,59.40
2022-11-22T18:04:17.655Z,57.10
2022-11-22T18:06:45.743Z,55.60
2022-11-22T18:09:13.863Z,52.30
2022-11-22T18:11:42.167Z,60.60
2022-11-22T18:14:11.444Z,59.80
2022-11-22T18:16:41.331Z,59.00
2022-11-22T18:19:13.950Z,49.80
2022-11-22T18:21:44.676Z,55.00
2022-11-22T18:24:13.521Z,59.00
2022-11-22T18:26:42.284Z,58.70
2022-11-22T18:32:01.953Z,62.30
2022-11-22T18:34:31.024Z,53.40
2022-11-22T18:37:02.921Z,59.90
2022-11-22T18:39:40.723Z,59.80
2022-11-22T18:42:14.954Z,65.40
2022-11-22T18:44:43.267Z,62.70
2022-11-22T18:47:12.615Z,58.10
2022-11-22T18:49:41.566Z,59.60
2022-11-22T18:52:13.390Z,62.70
2022-11-22T18:54:45.460Z,58.00
2022-11-22T18:57:13.961Z,56.50
2022-11-22T18:59:42.234Z,55.10
2022-11-22T19:02:10.643Z,59.00
2022-11-22T19:04:39.121Z,58.70
2022-11-22T19:07:07.735Z,58.70
2022-11-22T19:09:36.582Z,48.90
2022-11-22T19:12:06.533Z,57.40
2022-11-22T19:14:35.024Z,59.90
2022-11-22T19:17:04.708Z,54.00
2022-11-22T19:19:34.561Z,53.50
2022-11-22T19:22:03.317Z,49.70
2022-11-22T19:24:32.860Z,51.60
2022-11-22T19:27:01.904Z,56.00
2022-11-22T19:29:33.223Z,58.10
2022-11-22T19:32:05.320Z,54.80
2022-11-22T19:34:33.968Z,56.40
2022-11-22T19:37:03.902Z,57.20
2022-11-22T19:39:35.446Z,39.80
2022-11-22T19:42:04.070Z,60.00
2022-11-22T19:44:38.159Z,57.30
2022-11-22T19:47:12.296Z,57.30
2022-11-22T19:49:40.680Z,61.90
2022-11-22T19:52:10.363Z,56.30
2022-11-22T19:54:38.762Z,58.80
2022-11-22T19:57:08.871Z,58.80
2022-11-22T19:59:37.614Z,51.90
2022-11-22T20:02:06.186Z,51.90
2022-11-22T20:04:49.882Z,53.50
2022-11-22T20:07:19.063Z,49.00
2022-11-22T20:09:50.231Z,55.10
2022-11-22T20:12:19.548Z,55.00
2022-11-22T20:14:47.653Z,43.50
2022-11-22T20:17:16.705Z,51.30
2022-11-22T20:19:45.303Z,50.00
2022-11-22T20:22:13.516Z,56.50
2022-11-22T20:24:41.756Z,49.00
2022-11-22T20:27:11.664Z,52.30
2022-11-22T20:29:41.616Z,46.70
2022-11-22T20:32:09.896Z,55.20
2022-11-22T20:34:38.481Z,56.40
2022-11-22T20:37:07.369Z,46.50
2022-11-22T20:39:37.382Z,50.00
2022-11-22T20:42:32.461Z,53.60
2022-11-22T20:44:53.381Z,50.70
2022-11-22T20:47:21.878Z,53.90
2022-11-22T20:49:50.194Z,51.20
2022-11-22T20:52:18.254Z,49.10
2022-11-22T20:54:48.098Z,49.70
2022-11-22T20:57:16.446Z,52.00
2022-11-22T20:59:48.232Z,44.20
2022-11-22T21:02:16.471Z,53.20
2022-11-22T21:04:45.734Z,50.50
2022-11-22T21:07:13.953Z,56.00
2022-11-22T21:09:42.130Z,46.80
2022-11-22T21:12:11.611Z,45.80
2022-11-22T21:14:40.055Z,57.80
2022-11-22T21:17:37.235Z,43.90
2022-11-22T21:19:56.244Z,55.70
2022-11-22T21:22:30.191Z,51.20
2022-11-22T21:25:00.207Z,47.70
2022-11-22T21:27:28.472Z,48.60
2022-11-22T21:29:57.269Z,56.80
2022-11-22T21:32:26.448Z,51.80
2022-11-22T21:35:00.922Z,51.70
2022-11-22T21:37:28.908Z,59.00
2022-11-22T21:39:57.007Z,59.70
2022-11-22T21:42:25.382Z,50.50
2022-11-22T21:44:53.532Z,46.70
2022-11-22T21:47:23.530Z,55.30
2022-11-22T21:49:52.055Z,49.10
2022-11-22T21:52:20.587Z,58.00
2022-11-22T21:54:48.861Z,47.30
2022-11-22T21:57:16.980Z,54.90
2022-11-22T21:59:45.440Z,54.90
2022-11-22T22:02:13.560Z,53.20
2022-11-22T22:04:41.439Z,52.40
2022-11-22T22:07:29.724Z,52.50
2022-11-22T22:09:59.003Z,51.60
2022-11-22T22:12:27.146Z,51.20
2022-11-22T22:14:55.421Z,50.30
2022-11-22T22:17:23.481Z,48.10
2022-11-22T22:19:52.485Z,48.80
2022-11-22T22:22:20.665Z,53.10
2022-11-22T22:24:48.614Z,52.50
2022-11-22T22:27:16.921Z,49.00
2022-11-22T22:29:45.705Z,48.10
2022-11-22T22:32:14.372Z,51.20
2022-11-22T22:34:43.547Z,50.70
2022-11-22T22:37:11.727Z,51.80
2022-11-22T22:39:39.558Z,49.50
2022-11-22T22:42:07.542Z,49.40
2022-11-22T22:44:35.539Z,52.30
2022-11-22T22:47:03.649Z,53.80
2022-11-22T22:49:31.701Z,48.50
2022-11-22T22:51:59.651Z,49.70
2022-11-22T22:54:27.686Z,50.70
2022-11-22T22:56:55.665Z,52.10
2022-11-22T22:59:23.655Z,52.30
2022-11-22T23:01:51.804Z,45.60
2022-11-22T23:04:19.858Z,48.10
2022-11-22T23:06:48.026Z,50.20
2022-11-22T23:09:16.405Z,52.40
2022-11-22T23:12:03.068Z,55.90
2022-11-22T23:14:30.905Z,55.70
2022-11-22T23:16:58.738Z,53.10
2022-11-22T23:19:27.555Z,53.20
2022-11-22T23:21:55.641Z,55.30
2022-11-22T23:24:23.787Z,44.90
2022-11-22T23:26:51.997Z,42.60
2022-11-22T23:29:20.112Z,52.10
2022-11-22T23:31:48.105Z,47.60
2022-11-22T23:34:16.733Z,44.30
2022-11-22T23:36:44.814Z,41.90
2022-11-22T23:39:12.954Z,46.70
2022-11-22T23:41:41.441Z,45.30
2022-11-22T23:44:10.114Z,47.40
2022-11-22T23:46:38.324Z,47.70
2022-11-22T23:49:07.038Z,46.30
2022-11-22T23:51:35.772Z,47.60
2022-11-22T23:54:05.741Z,47.00
2022-11-22T23:56:35.715Z,47.30
2022-11-22T23:59:05.646Z,46.00
